Time;durP1;ratioP1;P1;durP2;ratioP2;P2;SDS_P1;SDS_P2;PMS_P1;PMS_P2;Temp;Humidity;BMP_temperature;BMP_pressure;BME280_temperature;BME280_humidity;BME280_pressure;Samples;Min_cycle;Max_cycle;Signal;HPM_P1;HPM_P2
2022/04/08 00:02:13;;;;;;;2.58;1.20;;;;;;;5.04;100.00;98048.09;6009281;29;20073;-90
2022/04/08 00:05:25;;;;;;;4.85;1.17;;;;;;;4.97;100.00;98050.47;6017338;29;20045;-90
2022/04/08 00:08:27;;;;;;;3.83;1.10;;;;;;;4.91;100.00;98067.22;6021270;29;20526;-91
2022/04/08 00:11:29;;;;;;;2.20;0.80;;;;;;;4.81;100.00;98063.91;6014694;29;20041;-91
2022/04/08 00:14:32;;;;;;;1.48;0.63;;;;;;;4.74;100.00;98068.84;6008068;29;20056;-91
2022/04/08 00:17:34;;;;;;;1.13;1.02;;;;;;;4.63;100.00;98053.66;6012896;29;20204;-90
2022/04/08 00:20:36;;;;;;;2.05;0.70;;;;;;;4.48;100.00;98070.47;6023544;29;20049;-93
2022/04/08 00:23:38;;;;;;;1.77;0.70;;;;;;;4.39;100.00;98079.00;6017392;29;20044;-89
2022/04/08 00:26:41;;;;;;;1.20;0.60;;;;;;;4.39;100.00;98073.88;6017683;29;20669;-91
2022/04/08 00:29:44;;;;;;;1.30;0.70;;;;;;;4.40;100.00;98086.56;6016875;29;20061;-90
2022/04/08 00:32:46;;;;;;;2.97;0.55;;;;;;;4.52;100.00;98090.53;6006828;29;20058;-92
2022/04/08 00:35:48;;;;;;;2.67;0.82;;;;;;;4.45;100.00;98084.38;6008435;29;20546;-90
2022/04/08 00:38:50;;;;;;;2.88;0.60;;;;;;;4.51;100.00;98088.91;6011023;29;20162;-91
2022/04/08 00:41:52;;;;;;;1.38;0.70;;;;;;;4.59;100.00;98098.44;6009557;29;20049;-91
2022/04/08 00:44:54;;;;;;;2.20;0.80;;;;;;;4.67;100.00;98113.09;6017289;29;20049;-91
2022/04/08 00:47:57;;;;;;;2.28;0.70;;;;;;;4.71;100.00;98134.91;6007914;29;20164;-91
2022/04/08 00:51:00;;;;;;;1.00;0.60;;;;;;;4.79;100.00;98137.56;6013217;29;20054;-93
2022/04/08 00:54:03;;;;;;;3.72;0.80;;;;;;;4.83;100.00;98151.72;6007314;29;20045;-93
2022/04/08 00:57:05;;;;;;;2.80;1.15;;;;;;;4.90;100.00;98147.63;6012787;29;20132;-92
2022/04/08 01:00:09;;;;;;;3.65;0.93;;;;;;;4.89;100.00;98142.63;6022754;29;20128;-94
2022/04/08 01:03:11;;;;;;;7.85;1.48;;;;;;;4.84;100.00;98149.94;6013858;29;20090;-92
2022/04/08 01:06:13;;;;;;;2.72;1.50;;;;;;;4.82;100.00;98149.28;6026495;29;20056;-92
2022/04/08 01:09:16;;;;;;;3.20;1.08;;;;;;;4.83;100.00;98176.53;6012577;29;20419;-92
2022/04/08 01:12:18;;;;;;;4.07;1.10;;;;;;;4.81;100.00;98186.94;6027060;29;20042;-92
2022/04/08 01:15:22;;;;;;;4.97;1.23;;;;;;;4.78;100.00;98192.34;6018438;29;20117;-92
2022/04/08 01:18:24;;;;;;;5.43;1.60;;;;;;;4.74;100.00;98224.31;6018490;29;20038;-91
2022/04/08 01:21:25;;;;;;;5.68;1.40;;;;;;;4.76;100.00;98199.38;6011150;29;20137;-89
2022/04/08 01:24:29;;;;;;;3.13;0.73;;;;;;;4.64;100.00;98262.78;6017018;29;20288;-91
2022/04/08 01:27:32;;;;;;;1.85;0.50;;;;;;;4.39;100.00;98233.47;6019949;29;20088;-91
2022/04/08 01:30:33;;;;;;;0.73;0.43;;;;;;;4.24;100.00;98233.09;6012944;29;20057;-90
2022/04/08 01:33:35;;;;;;;5.22;1.15;;;;;;;4.23;100.00;98234.03;6007821;29;20525;-90
2022/04/08 01:36:37;;;;;;;3.08;0.80;;;;;;;4.26;100.00;98241.44;6014267;29;20045;-92
2022/04/08 01:39:40;;;;;;;2.78;0.73;;;;;;;4.28;100.00;98239.56;6023110;29;20678;-89
2022/04/08 01:42:42;;;;;;;1.95;0.70;;;;;;;4.31;100.00;98235.91;6020065;29;20131;-90
2022/04/08 01:45:43;;;;;;;2.10;0.95;;;;;;;4.29;100.00;98256.53;6014855;29;20049;-91
2022/04/08 01:48:46;;;;;;;3.90;0.80;;;;;;;4.38;100.00;98275.41;6030242;29;20127;-92
2022/04/08 01:51:48;;;;;;;6.20;1.25;;;;;;;4.38;100.00;98264.34;6016560;29;20555;-90
2022/04/08 01:54:50;;;;;;;4.30;1.30;;;;;;;4.34;100.00;98278.38;6013476;29;20673;-91
2022/04/08 01:57:52;;;;;;;4.78;1.27;;;;;;;4.28;100.00;98297.66;6018665;29;20045;-91
2022/04/08 02:00:54;;;;;;;3.58;1.63;;;;;;;4.29;100.00;98296.69;6000892;29;20045;-91
2022/04/08 02:03:55;;;;;;;2.72;1.02;;;;;;;4.34;100.00;98296.28;6009862;29;20129;-89
2022/04/08 02:06:58;;;;;;;6.00;1.60;;;;;;;4.31;100.00;98307.63;6008248;29;20412;-92
2022/04/08 02:09:59;;;;;;;6.47;1.20;;;;;;;4.31;100.00;98312.75;6022441;29;20065;-92
2022/04/08 02:13:01;;;;;;;6.18;2.97;;;;;;;4.30;100.00;98322.19;6018286;29;20136;-90
2022/04/08 02:16:04;;;;;;;3.42;1.02;;;;;;;4.35;100.00;98334.59;6018710;29;20128;-92
2022/04/08 02:19:05;;;;;;;3.17;1.13;;;;;;;4.28;100.00;98354.78;6018452;29;20061;-92
2022/04/08 02:22:07;;;;;;;5.93;1.55;;;;;;;4.23;100.00;98345.91;6030855;29;20541;-93
2022/04/08 02:25:11;;;;;;;3.42;1.30;;;;;;;4.19;100.00;98355.59;6012718;29;20042;-94
2022/04/08 02:28:13;;;;;;;2.78;1.10;;;;;;;4.24;100.00;98358.56;6034318;29;20097;-92
2022/04/08 02:31:15;;;;;;;6.15;1.40;;;;;;;4.24;100.00;98365.44;6037403;29;20045;-92
2022/04/08 02:34:17;;;;;;;4.03;1.17;;;;;;;4.25;100.00;98375.56;6036303;29;20053;-92
2022/04/08 02:37:19;;;;;;;3.25;0.93;;;;;;;4.22;100.00;98364.75;6041047;29;20053;-92
2022/04/08 02:40:21;;;;;;;4.68;1.05;;;;;;;4.28;100.00;98377.84;6017401;29;20080;-92
2022/04/08 02:43:23;;;;;;;5.20;1.38;;;;;;;4.29;100.00;98376.09;6032474;29;20056;-93
2022/04/08 02:46:25;;;;;;;4.60;1.38;;;;;;;4.24;100.00;98398.72;6014268;29;20053;-93
2022/04/08 02:49:27;;;;;;;2.47;1.13;;;;;;;4.25;100.00;98395.25;6024480;29;20049;-93
2022/04/08 02:52:29;;;;;;;7.55;1.40;;;;;;;4.25;100.00;98400.38;6025691;29;20119;-94
2022/04/08 02:55:31;;;;;;;3.88;1.23;;;;;;;4.19;100.00;98390.63;6027721;29;20165;-94
2022/04/08 02:58:35;;;;;;;3.83;1.50;;;;;;;4.23;100.00;98428.66;6017634;29;20083;-93
2022/04/08 03:01:38;;;;;;;7.90;1.75;;;;;;;4.21;100.00;98425.41;6023824;29;20111;-93
2022/04/08 03:04:40;;;;;;;5.15;1.30;;;;;;;4.24;100.00;98425.13;6019508;29;20148;-92
2022/04/08 03:07:42;;;;;;;3.10;1.15;;;;;;;4.31;100.00;98453.59;6011156;29;20610;-91
2022/04/08 03:10:44;;;;;;;4.65;1.02;;;;;;;4.24;100.00;98443.06;6018203;29;20061;-91
2022/04/08 03:13:46;;;;;;;4.00;1.27;;;;;;;4.33;100.00;98449.16;6021369;29;20052;-91
2022/04/08 03:16:47;;;;;;;2.03;1.20;;;;;;;4.30;100.00;98452.00;6009146;29;20049;-90
2022/04/08 03:19:49;;;;;;;4.20;1.20;;;;;;;4.27;100.00;98455.63;6005940;29;20050;-90
2022/04/08 03:22:51;;;;;;;2.97;1.00;;;;;;;4.32;100.00;98442.41;6012494;29;20416;-91
2022/04/08 03:25:53;;;;;;;6.20;1.10;;;;;;;4.31;100.00;98456.97;6018704;29;20056;-90
2022/04/08 03:28:55;;;;;;;3.88;1.05;;;;;;;4.29;100.00;98463.97;6017536;29;20377;-90
2022/04/08 03:31:57;;;;;;;3.72;1.25;;;;;;;4.32;100.00;98494.44;6016006;29;20045;-90
2022/04/08 03:34:58;;;;;;;4.90;1.55;;;;;;;4.33;100.00;98479.88;6001519;29;20115;-90
2022/04/08 03:38:01;;;;;;;5.60;1.90;;;;;;;4.26;100.00;98481.34;6021966;29;20088;-94
2022/04/08 03:41:03;;;;;;;6.35;1.70;;;;;;;4.12;100.00;98490.19;6030867;29;20057;-94
2022/04/08 03:44:05;;;;;;;2.55;1.50;;;;;;;4.07;100.00;98480.38;6007714;29;20498;-93
2022/04/08 03:47:07;;;;;;;2.10;1.20;;;;;;;4.06;100.00;98485.63;6021586;29;20049;-92
2022/04/08 03:50:09;;;;;;;3.38;1.55;;;;;;;4.05;100.00;98492.50;6017424;29;20771;-91
2022/04/08 03:53:12;;;;;;;4.82;1.50;;;;;;;4.01;100.00;98496.25;6000696;29;20038;-93
2022/04/08 03:56:14;;;;;;;3.88;1.23;;;;;;;3.94;100.00;98510.50;6018775;29;20046;-92
2022/04/08 03:59:16;;;;;;;4.95;1.20;;;;;;;3.96;100.00;98500.13;6008554;29;20042;-92
2022/04/08 04:02:19;;;;;;;1.20;1.10;;;;;;;3.83;100.00;98508.03;6010266;29;20045;-91
2022/04/08 04:05:21;;;;;;;4.03;1.55;;;;;;;3.81;100.00;98536.31;6026410;29;20597;-91
2022/04/08 04:08:23;;;;;;;1.60;0.80;;;;;;;3.84;100.00;98530.91;6011075;29;20053;-90
2022/04/08 04:11:25;;;;;;;1.42;0.80;;;;;;;3.76;100.00;98523.06;6000644;29;20034;-90
2022/04/08 04:14:26;;;;;;;3.17;2.00;;;;;;;3.80;100.00;98542.38;6008687;29;20436;-92
2022/04/08 04:17:28;;;;;;;2.47;1.55;;;;;;;3.85;100.00;98559.88;6030675;29;20038;-90
2022/04/08 04:20:31;;;;;;;1.33;0.88;;;;;;;3.74;100.00;98560.78;6014259;29;20390;-91
2022/04/08 04:23:33;;;;;;;0.63;0.63;;;;;;;3.74;100.00;98580.44;6012205;29;20420;-92
2022/04/08 04:26:35;;;;;;;3.17;1.05;;;;;;;3.71;100.00;98613.97;6003549;29;20045;-92
2022/04/08 04:29:37;;;;;;;2.47;0.70;;;;;;;3.49;100.00;98625.91;5996529;29;21046;-91
2022/04/08 04:32:40;;;;;;;2.03;0.60;;;;;;;3.22;100.00;98631.47;6014270;29;20041;-90
2022/04/08 04:35:41;;;;;;;3.95;0.88;;;;;;;3.14;100.00;98639.75;5998553;29;20053;-90
2022/04/08 04:38:43;;;;;;;2.83;0.70;;;;;;;3.00;100.00;98647.69;6010523;29;20064;-93
2022/04/08 04:41:45;;;;;;;2.45;0.50;;;;;;;2.89;100.00;98650.28;6003747;29;20169;-90
2022/04/08 04:44:48;;;;;;;2.58;0.80;;;;;;;2.90;100.00;98659.56;6013743;29;20508;-92
2022/04/08 04:47:50;;;;;;;0.70;0.70;;;;;;;2.81;100.00;98663.66;6017009;29;20610;-92
2022/04/08 04:50:54;;;;;;;0.70;0.70;;;;;;;2.90;100.00;98665.47;6008326;29;20053;-92
2022/04/08 04:53:57;;;;;;;1.10;0.60;;;;;;;2.88;100.00;98677.56;6007897;29;20919;-90
2022/04/08 04:56:59;;;;;;;0.75;0.55;;;;;;;2.84;100.00;98681.28;6014328;29;20491;-91
2022/04/08 05:00:03;;;;;;;2.10;0.70;;;;;;;2.78;100.00;98686.84;6029983;29;20062;-90
2022/04/08 05:03:06;;;;;;;0.85;0.55;;;;;;;2.78;100.00;98691.97;6025652;29;20049;-92
2022/04/08 05:06:08;;;;;;;1.08;0.70;;;;;;;2.72;100.00;98687.34;6009046;29;20384;-91
2022/04/08 05:09:10;;;;;;;2.00;0.70;;;;;;;2.71;100.00;98683.97;6024158;29;20053;-92
2022/04/08 05:12:12;;;;;;;0.63;0.50;;;;;;;2.78;100.00;98690.25;6033845;29;20073;-92
2022/04/08 05:15:14;;;;;;;2.00;0.70;;;;;;;2.65;100.00;98693.84;6028240;29;20049;-92
2022/04/08 05:18:16;;;;;;;1.63;0.45;;;;;;;2.66;100.00;98710.78;6015068;29;20052;-93
2022/04/08 05:21:18;;;;;;;0.63;0.50;;;;;;;2.58;100.00;98694.31;6006765;29;20049;-92
2022/04/08 05:24:20;;;;;;;3.80;0.52;;;;;;;2.53;100.00;98706.59;6013224;29;20370;-93
2022/04/08 05:27:21;;;;;;;1.63;0.60;;;;;;;2.57;100.00;98692.66;6014092;29;20034;-93
2022/04/08 05:30:23;;;;;;;2.53;0.73;;;;;;;2.62;100.00;98706.84;6000751;29;20543;-93
2022/04/08 05:33:25;;;;;;;0.60;0.60;;;;;;;2.75;100.00;98712.63;6009309;29;20049;-93
2022/04/08 05:36:27;;;;;;;2.25;1.20;;;;;;;2.85;100.00;98710.19;6023834;29;20511;-94
2022/04/08 05:39:29;;;;;;;2.80;1.10;;;;;;;2.92;100.00;98716.47;6010879;29;20635;-94
2022/04/08 05:42:31;;;;;;;4.55;0.98;;;;;;;3.15;100.00;98710.38;6027371;29;20034;-94
2022/04/08 05:45:33;;;;;;;7.97;1.00;;;;;;;3.32;100.00;98729.53;6014095;29;20072;-92
2022/04/08 05:48:35;;;;;;;1.88;1.00;;;;;;;3.53;100.00;98727.06;6017266;29;20121;-93
2022/04/08 05:51:37;;;;;;;5.20;1.60;;;;;;;3.64;100.00;98739.00;6012829;29;20046;-93
2022/04/08 05:54:42;;;;;;;4.93;1.10;;;;;;;3.73;100.00;98740.84;6026104;29;20047;-94
2022/04/08 05:57:45;;;;;;;1.90;1.13;;;;;;;3.78;100.00;98743.84;6012196;29;20050;-94
2022/04/08 06:00:47;;;;;;;3.45;1.10;;;;;;;3.64;100.00;98744.91;6006753;29;20051;-93
2022/04/08 06:03:49;;;;;;;1.75;0.90;;;;;;;3.62;100.00;98757.00;6026103;29;20041;-93
2022/04/08 06:06:50;;;;;;;3.60;0.93;;;;;;;3.78;100.00;98761.75;6007209;29;20072;-92
2022/04/08 06:09:53;;;;;;;4.78;1.25;;;;;;;3.97;100.00;98775.63;6020330;29;20117;-94
2022/04/08 06:12:55;;;;;;;7.00;1.25;;;;;;;4.09;100.00;98770.34;6026846;29;20056;-90
2022/04/08 06:15:57;;;;;;;4.50;1.35;;;;;;;4.06;100.00;98791.06;6019697;29;20136;-89
2022/04/08 06:18:59;;;;;;;3.15;0.82;;;;;;;3.93;100.00;98758.91;6023506;29;20078;-91
2022/04/08 06:22:01;;;;;;;3.88;0.95;;;;;;;3.82;100.00;98764.88;6017941;29;20042;-93
2022/04/08 06:25:03;;;;;;;4.95;1.17;;;;;;;3.71;100.00;98764.91;6024972;29;20045;-95
2022/04/08 06:28:06;;;;;;;3.05;1.10;;;;;;;3.59;100.00;98770.06;6015349;29;20051;-93
2022/04/08 06:31:10;;;;;;;6.00;1.33;;;;;;;3.77;100.00;98782.34;6008176;29;20045;-94
2022/04/08 06:34:18;;;;;;;4.78;1.38;;;;;;;3.93;100.00;98775.06;6006024;29;20050;-92
2022/04/08 06:37:20;;;;;;;4.85;1.33;;;;;;;3.98;100.00;98775.53;6004693;29;20052;-91
2022/04/08 06:40:22;;;;;;;6.13;1.23;;;;;;;4.03;100.00;98785.41;6006798;29;20046;-92
2022/04/08 06:43:24;;;;;;;6.80;1.70;;;;;;;3.99;100.00;98773.75;6013159;29;20061;-93
2022/04/08 06:46:26;;;;;;;7.28;1.67;;;;;;;4.04;100.00;98777.56;6013209;29;20041;-94
2022/04/08 06:49:28;;;;;;;7.25;1.52;;;;;;;4.20;100.00;98784.00;6022466;29;20073;-94
2022/04/08 06:52:30;;;;;;;4.00;1.70;;;;;;;4.33;100.00;98774.44;6015926;29;20260;-93
2022/04/08 06:55:32;;;;;;;4.47;1.85;;;;;;;4.38;100.00;98789.44;6016385;29;20097;-93
2022/04/08 06:58:38;;;;;;;8.35;2.42;;;;;;;4.43;100.00;98782.97;6009425;29;20061;-92
2022/04/08 07:01:41;;;;;;;7.20;2.05;;;;;;;4.48;100.00;98780.06;6011630;29;21117;-93
2022/04/08 07:04:43;;;;;;;7.15;1.88;;;;;;;4.52;100.00;98787.38;6008260;29;20514;-93
2022/04/08 07:07:47;;;;;;;7.72;1.80;;;;;;;4.66;100.00;98782.84;6012175;29;20053;-93
2022/04/08 07:10:49;;;;;;;6.13;2.30;;;;;;;4.85;100.00;98787.28;6017099;29;20129;-91
2022/04/08 07:13:51;;;;;;;6.15;2.30;;;;;;;4.90;100.00;98780.81;6004220;29;20041;-92
2022/04/08 07:16:53;;;;;;;8.68;2.05;;;;;;;5.05;100.00;98783.84;6021968;29;20046;-92
2022/04/08 07:19:56;;;;;;;8.77;2.60;;;;;;;5.10;100.00;98786.84;6004503;29;20057;-90
2022/04/08 07:23:03;;;;;;;5.97;1.70;;;;;;;5.15;100.00;98779.56;6026282;29;20554;-90
2022/04/08 07:26:05;;;;;;;7.38;1.77;;;;;;;5.06;100.00;98792.34;6016171;29;20472;-90
2022/04/08 07:29:07;;;;;;;4.80;2.13;;;;;;;5.05;100.00;98763.31;6018984;29;20075;-94
2022/04/08 07:32:11;;;;;;;3.92;2.03;;;;;;;5.13;100.00;98781.44;6020855;29;20064;-91
2022/04/08 07:35:13;;;;;;;7.45;2.10;;;;;;;5.32;100.00;98783.25;6031067;29;20178;-91
2022/04/08 07:38:16;;;;;;;6.50;1.98;;;;;;;5.42;100.00;98782.47;6028863;29;20045;-91
2022/04/08 07:41:18;;;;;;;6.57;1.60;;;;;;;5.41;100.00;98781.66;6006730;29;20064;-91
2022/04/08 07:44:20;;;;;;;5.57;2.10;;;;;;;5.34;100.00;98794.22;6020197;29;20057;-90
2022/04/08 07:47:27;;;;;;;4.47;1.80;;;;;;;5.54;100.00;98779.66;6005738;29;20684;-91
2022/04/08 07:50:29;;;;;;;7.20;1.63;;;;;;;5.58;100.00;98791.28;6023910;29;20069;-91
2022/04/08 07:53:32;;;;;;;6.97;2.03;;;;;;;5.40;100.00;98783.41;6017060;29;20558;-90
2022/04/08 07:56:35;;;;;;;4.32;1.80;;;;;;;5.25;100.00;98794.97;6006396;29;20045;-92
2022/04/08 07:59:37;;;;;;;6.88;1.73;;;;;;;5.24;100.00;98789.97;6015065;29;20491;-89
2022/04/08 08:02:39;;;;;;;5.25;1.65;;;;;;;5.46;100.00;98800.03;6013783;29;20037;-90
2022/04/08 08:05:41;;;;;;;6.60;1.73;;;;;;;5.71;100.00;98823.59;6015042;29;20069;-91
2022/04/08 08:08:44;;;;;;;6.10;1.70;;;;;;;5.81;100.00;98801.31;6018777;29;20045;-90
2022/04/08 08:11:46;;;;;;;4.82;1.70;;;;;;;6.01;100.00;98813.28;6002008;29;20041;-90
2022/04/08 08:14:48;;;;;;;11.65;2.63;;;;;;;6.16;100.00;98826.53;6009197;29;20125;-90
2022/04/08 08:17:51;;;;;;;8.63;1.52;;;;;;;6.21;100.00;98829.50;6026267;29;20133;-90
2022/04/08 08:20:53;;;;;;;7.47;2.40;;;;;;;6.25;100.00;98828.25;6022473;29;20053;-91
2022/04/08 08:23:55;;;;;;;3.38;1.88;;;;;;;6.33;100.00;98825.00;6030448;29;20713;-91
2022/04/08 08:26:57;;;;;;;7.28;2.25;;;;;;;6.36;100.00;98826.50;6015245;29;20037;-91
2022/04/08 08:29:59;;;;;;;3.53;1.45;;;;;;;6.40;100.00;98825.28;6004611;29;20111;-91
2022/04/08 08:33:04;;;;;;;6.45;2.00;;;;;;;6.35;100.00;98820.56;6007192;29;20130;-91
2022/04/08 08:36:06;;;;;;;5.90;1.60;;;;;;;6.49;100.00;98827.06;6008829;29;20054;-90
2022/04/08 08:39:08;;;;;;;5.07;1.73;;;;;;;6.57;100.00;98823.78;6003044;29;20519;-91
2022/04/08 08:42:11;;;;;;;5.78;1.40;;;;;;;6.44;100.00;98824.88;6026351;29;20046;-91
2022/04/08 08:45:15;;;;;;;3.55;1.38;;;;;;;6.59;100.00;98817.56;6007469;29;20852;-91
2022/04/08 08:48:17;;;;;;;4.40;1.48;;;;;;;6.79;100.00;98810.63;6018620;29;20601;-91
2022/04/08 08:51:20;;;;;;;11.48;2.53;;;;;;;6.71;100.00;98809.69;6014639;29;20098;-92
2022/04/08 08:54:22;;;;;;;7.78;1.90;;;;;;;6.41;100.00;98822.59;6018696;29;20045;-91
2022/04/08 08:57:25;;;;;;;4.65;1.85;;;;;;;6.09;100.00;98825.44;6024965;29;20045;-91
2022/04/08 09:00:26;;;;;;;4.55;1.77;;;;;;;6.02;100.00;98803.81;6021682;29;20113;-92
2022/04/08 09:03:29;;;;;;;10.02;2.17;;;;;;;6.12;100.00;98821.78;6029958;29;20053;-91
2022/04/08 09:06:41;;;;;;;5.75;2.00;;;;;;;6.25;100.00;98807.72;6034281;29;20483;-92
2022/04/08 09:09:51;;;;;;;6.55;1.98;;;;;;;6.56;100.00;98820.41;6026475;29;20500;-92
2022/04/08 09:12:55;;;;;;;3.53;1.77;;;;;;;6.92;100.00;98806.94;6013603;29;20122;-92
2022/04/08 09:15:59;;;;;;;6.40;2.20;;;;;;;7.27;100.00;98813.97;6020910;29;20302;-93
2022/04/08 09:19:09;;;;;;;3.42;1.88;;;;;;;7.27;100.00;98809.63;6016644;29;20887;-92
2022/04/08 09:22:11;;;;;;;5.63;2.08;;;;;;;7.23;100.00;98813.47;6009353;29;20053;-92
2022/04/08 09:25:13;;;;;;;7.05;2.25;;;;;;;7.20;100.00;98818.06;6022166;29;20158;-93
2022/04/08 09:28:17;;;;;;;4.53;1.95;;;;;;;7.58;100.00;98805.94;6022427;29;20608;-93
2022/04/08 09:31:20;;;;;;;6.03;1.80;;;;;;;7.88;97.37;98804.81;6010369;29;20045;-93
2022/04/08 09:34:23;;;;;;;5.03;2.00;;;;;;;7.80;95.01;98810.72;6025913;29;20083;-93
2022/04/08 09:37:25;;;;;;;4.05;1.80;;;;;;;7.50;96.06;98802.34;6017712;29;20045;-92
2022/04/08 09:40:33;;;;;;;9.13;2.47;;;;;;;7.19;100.00;98793.28;6017791;29;20105;-93
2022/04/08 09:43:36;;;;;;;7.03;2.50;;;;;;;7.11;100.00;98789.66;6006543;29;20053;-93
2022/04/08 09:46:39;;;;;;;5.72;2.05;;;;;;;6.84;99.17;98793.00;6012664;29;20702;-92
2022/04/08 09:49:47;;;;;;;2.72;1.75;;;;;;;6.59;100.00;98794.44;6009426;29;20398;-92
2022/04/08 09:52:49;;;;;;;3.92;1.77;;;;;;;6.62;100.00;98791.56;6009895;29;20110;-93
2022/04/08 09:55:51;;;;;;;4.38;1.60;;;;;;;6.61;100.00;98796.88;6026076;29;20190;-91
2022/04/08 09:59:01;;;;;;;5.45;2.00;;;;;;;6.73;99.06;98792.34;6021121;29;20037;-93
2022/04/08 10:02:03;;;;;;;6.07;2.88;;;;;;;6.85;100.00;98797.19;6014920;29;20057;-92
2022/04/08 10:05:08;;;;;;;5.30;2.58;;;;;;;6.72;100.00;98786.41;6010904;29;20058;-93
2022/04/08 10:08:10;;;;;;;5.15;1.83;;;;;;;6.70;100.00;98783.16;6026852;29;20567;-93
2022/04/08 10:11:18;;;;;;;8.57;2.45;;;;;;;6.80;100.00;98780.56;6003268;29;20048;-92
2022/04/08 10:14:44;;;;;;;7.63;2.30;;;;;;;6.89;100.00;98772.00;6010882;29;20512;-93
2022/04/08 10:17:58;;;;;;;7.43;2.45;;;;;;;6.89;100.00;98770.25;6018590;29;20514;-93
2022/04/08 10:21:00;;;;;;;5.45;1.92;;;;;;;6.84;100.00;98766.47;6013960;29;20062;-93
2022/04/08 10:24:09;;;;;;;6.22;1.77;;;;;;;6.78;100.00;98769.59;6018430;29;20053;-93
2022/04/08 10:27:10;;;;;;;5.28;2.00;;;;;;;6.84;100.00;98787.06;6012565;29;20078;-92
2022/04/08 10:30:32;;;;;;;4.32;2.00;;;;;;;6.47;100.00;98774.97;6014267;29;20559;-93
2022/04/08 10:33:45;;;;;;;8.25;2.50;;;;;;;5.99;100.00;98775.84;6016018;29;20518;-92
2022/04/08 10:36:47;;;;;;;5.47;2.13;;;;;;;5.95;100.00;98764.19;6014099;29;20487;-93
2022/04/08 10:40:02;;;;;;;6.15;2.42;;;;;;;6.35;100.00;98766.59;6025028;29;20766;-93
2022/04/08 10:43:06;;;;;;;2.70;2.13;;;;;;;6.83;100.00;98763.09;6006467;29;20658;-92
2022/04/08 10:46:08;;;;;;;5.85;2.35;;;;;;;7.15;100.00;98754.16;6021125;29;20424;-93
2022/04/08 10:49:10;;;;;;;4.88;2.30;;;;;;;7.27;100.00;98750.44;5999225;29;20428;-93
2022/04/08 10:52:23;;;;;;;6.60;2.78;;;;;;;7.34;100.00;98750.69;6023641;29;20181;-92
2022/04/08 10:55:25;;;;;;;6.43;2.05;;;;;;;7.60;100.00;98752.53;6019736;29;20136;-93
2022/04/08 10:58:46;;;;;;;5.80;2.28;;;;;;;7.96;100.00;98745.63;6016695;29;20050;-93
2022/04/08 11:01:48;;;;;;;7.00;2.20;;;;;;;8.02;100.00;98739.88;6019823;29;20097;-93
2022/04/08 11:05:00;;;;;;;5.75;2.22;;;;;;;8.13;100.00;98734.50;6013246;29;20070;-93
2022/04/08 11:08:02;;;;;;;6.35;1.98;;;;;;;8.29;100.00;98725.25;6010742;29;20050;-93
2022/04/08 11:11:04;;;;;;;7.13;2.10;;;;;;;8.59;100.00;98726.59;6015487;29;20042;-92
2022/04/08 11:14:07;;;;;;;4.55;1.55;;;;;;;8.86;89.51;98722.22;6019348;29;20535;-93
2022/04/08 11:17:10;;;;;;;4.05;2.25;;;;;;;9.12;87.87;98733.31;6022737;29;20049;-92
2022/04/08 11:20:14;;;;;;;3.95;1.52;;;;;;;9.25;87.69;98725.91;6041104;29;20407;-92
2022/04/08 11:23:27;;;;;;;5.82;1.67;;;;;;;9.12;86.63;98732.47;6032611;29;20060;-92
2022/04/08 11:26:30;;;;;;;3.40;1.58;;;;;;;8.87;91.83;98737.56;6019957;29;20165;-92
2022/04/08 11:29:32;;;;;;;4.22;1.98;;;;;;;8.67;92.71;98728.41;6020692;29;20038;-92
2022/04/08 11:32:34;;;;;;;3.22;1.55;;;;;;;8.62;92.41;98721.13;6015848;29;20049;-93
2022/04/08 11:35:36;;;;;;;5.47;2.28;;;;;;;8.48;93.57;98713.97;6027548;29;20045;-92
2022/04/08 11:38:42;;;;;;;6.20;1.90;;;;;;;8.26;93.83;98723.00;6017115;29;20056;-92
2022/04/08 11:42:04;;;;;;;6.28;1.92;;;;;;;7.99;96.31;98715.22;6014167;29;20094;-93
2022/04/08 11:45:09;;;;;;;3.13;1.70;;;;;;;7.76;100.00;98725.19;6021409;29;20045;-93
2022/04/08 11:48:13;;;;;;;4.03;1.48;;;;;;;7.52;100.00;98718.03;6014956;29;20046;-92
2022/04/08 11:51:22;;;;;;;3.55;1.65;;;;;;;7.41;100.00;98717.47;6024149;29;20037;-90
2022/04/08 11:54:24;;;;;;;7.20;1.95;;;;;;;7.44;100.00;98730.84;6025311;29;20511;-92
2022/04/08 11:57:28;;;;;;;3.40;1.55;;;;;;;7.89;99.50;98722.22;6020812;29;20067;-93
2022/04/08 12:00:33;;;;;;;5.03;1.60;;;;;;;8.14;95.92;98728.38;6008085;29;20257;-92
2022/04/08 12:03:36;;;;;;;5.65;1.80;;;;;;;7.99;94.14;98719.56;6007730;29;20042;-93
2022/04/08 12:06:47;;;;;;;4.15;1.60;;;;;;;7.98;93.43;98715.38;6013045;29;20128;-93
2022/04/08 12:09:51;;;;;;;6.35;1.98;;;;;;;8.30;91.97;98698.53;6010647;29;20050;-93
2022/04/08 12:12:53;;;;;;;3.47;1.70;;;;;;;8.93;91.24;98698.22;6011702;29;20046;-93
2022/04/08 12:15:57;;;;;;;2.63;1.45;;;;;;;8.96;94.81;98697.09;6017197;29;20048;-92
2022/04/08 12:19:02;;;;;;;3.90;1.50;;;;;;;8.94;89.81;98689.50;6009760;29;20413;-93
2022/04/08 12:22:26;;;;;;;6.25;2.00;;;;;;;8.97;92.06;98696.97;6008624;29;20132;-93
2022/04/08 12:25:31;;;;;;;2.80;1.58;;;;;;;8.90;88.74;98682.25;6013162;29;20475;-93
2022/04/08 12:28:35;;;;;;;3.00;1.60;;;;;;;8.80;86.83;98683.19;6018140;29;20101;-93
2022/04/08 12:31:54;;;;;;;4.10;1.48;;;;;;;8.61;88.07;98673.09;6015845;29;20060;-93
2022/04/08 12:34:57;;;;;;;3.42;1.67;;;;;;;8.46;83.87;98666.91;5999836;29;20053;-93
2022/04/08 12:37:59;;;;;;;3.05;1.42;;;;;;;8.19;80.99;98669.47;6023720;29;20041;-93
2022/04/08 12:41:02;;;;;;;2.55;1.40;;;;;;;8.03;80.23;98671.94;6008993;29;20042;-93
2022/04/08 12:44:04;;;;;;;3.55;1.55;;;;;;;7.92;77.00;98662.69;6000702;29;20575;-93
2022/04/08 12:47:06;;;;;;;6.18;1.63;;;;;;;7.99;84.00;98661.13;6011264;29;20133;-93
2022/04/08 12:50:10;;;;;;;4.13;1.95;;;;;;;8.18;81.69;98642.09;6021026;29;20086;-93
2022/04/08 12:53:12;;;;;;;6.13;1.80;;;;;;;8.25;77.55;98637.13;6019627;29;20045;-93
2022/04/08 12:56:14;;;;;;;4.10;1.50;;;;;;;8.41;75.48;98629.50;6019169;29;20124;-93
2022/04/08 12:59:16;;;;;;;3.90;1.40;;;;;;;8.37;74.68;98640.22;6016717;29;20044;-92
2022/04/08 13:02:20;;;;;;;4.15;1.60;;;;;;;8.35;72.42;98637.81;6020162;29;20049;-93
2022/04/08 13:05:23;;;;;;;4.95;1.67;;;;;;;8.60;73.25;98646.50;6024425;29;20049;-93
2022/04/08 13:08:24;;;;;;;6.32;1.77;;;;;;;9.06;72.56;98641.00;6013844;29;20041;-93
2022/04/08 13:11:26;;;;;;;3.97;1.67;;;;;;;9.05;69.35;98631.66;6010794;29;20051;-92
2022/04/08 13:14:28;;;;;;;4.00;1.73;;;;;;;9.01;67.81;98622.59;6017383;29;20042;-94
2022/04/08 13:17:30;;;;;;;3.00;1.60;;;;;;;9.14;70.40;98620.41;6018862;29;20069;-93
2022/04/08 13:20:32;;;;;;;2.65;1.77;;;;;;;9.38;67.80;98609.25;6024261;29;20052;-92
2022/04/08 13:23:35;;;;;;;4.22;1.67;;;;;;;9.38;67.57;98605.88;6016433;29;20055;-93
2022/04/08 13:26:37;;;;;;;5.90;1.77;;;;;;;9.39;66.37;98597.16;6017820;29;20054;-93
2022/04/08 13:29:39;;;;;;;4.47;1.65;;;;;;;9.53;69.47;98588.75;6016865;29;20053;-93
2022/04/08 13:32:41;;;;;;;2.90;1.52;;;;;;;9.99;69.15;98594.22;6012023;29;20045;-93
2022/04/08 13:35:42;;;;;;;3.65;1.50;;;;;;;10.06;65.72;98602.09;6019082;29;20049;-93
2022/04/08 13:38:44;;;;;;;6.35;2.20;;;;;;;10.35;67.98;98598.97;6016091;29;20776;-93
2022/04/08 13:41:49;;;;;;;3.10;1.40;;;;;;;10.05;62.61;98613.41;6020940;29;20045;-93
2022/04/08 13:44:52;;;;;;;2.65;1.33;;;;;;;9.69;67.13;98596.50;6021565;29;20062;-93
2022/04/08 13:47:54;;;;;;;5.28;1.88;;;;;;;9.87;66.51;98596.31;6016966;29;20118;-92
2022/04/08 13:50:57;;;;;;;5.55;1.80;;;;;;;10.06;64.51;98602.09;6030386;29;20045;-93
2022/04/08 13:53:59;;;;;;;4.40;1.70;;;;;;;10.02;64.80;98608.59;6012224;29;20509;-93
2022/04/08 13:57:00;;;;;;;4.90;1.55;;;;;;;9.89;61.33;98622.00;6018101;29;20037;-93
2022/04/08 14:00:04;;;;;;;3.45;1.48;;;;;;;9.67;61.81;98610.56;6017879;29;20045;-93
2022/04/08 14:03:06;;;;;;;4.57;1.48;;;;;;;9.73;62.08;98617.66;6020932;29;20058;-93
2022/04/08 14:06:09;;;;;;;3.45;1.50;;;;;;;9.38;63.39;98617.00;6014142;29;20408;-93
2022/04/08 14:09:11;;;;;;;2.92;1.58;;;;;;;9.34;66.04;98610.56;6020479;29;20049;-93
2022/04/08 14:12:13;;;;;;;3.75;1.60;;;;;;;9.56;65.57;98614.25;6017492;29;20261;-93
2022/04/08 14:15:15;;;;;;;3.50;1.58;;;;;;;9.69;62.90;98606.84;6022984;29;20046;-93
2022/04/08 14:18:25;;;;;;;2.65;2.00;;;;;;;9.62;64.68;98598.13;6019011;29;20080;-92
2022/04/08 14:21:27;;;;;;;2.63;1.58;;;;;;;9.68;63.32;98601.84;6011542;29;20065;-93
2022/04/08 14:24:29;;;;;;;2.75;1.40;;;;;;;9.76;62.85;98603.59;6021277;29;20048;-93